createdAt,value
2023-02-24T00:00:07.562Z,121.37
2023-02-24T00:02:38.088Z,115.87
2023-02-24T00:05:07.880Z,109.57
2023-02-24T00:07:38.221Z,118.30
2023-02-24T00:10:09.649Z,113.57
2023-02-24T00:12:38.995Z,108.57
2023-02-24T00:15:09.492Z,111.03
2023-02-24T00:17:38.841Z,97.77
2023-02-24T00:20:12.280Z,130.33
2023-02-24T00:22:42.956Z,143.27
2023-02-24T00:25:12.409Z,130.07
2023-02-24T00:27:41.537Z,115.30
2023-02-24T00:30:12.765Z,109.87
2023-02-24T00:32:41.715Z,110.20
2023-02-24T00:35:10.971Z,110.10
2023-02-24T00:37:40.045Z,116.50
2023-02-24T00:40:12.414Z,106.93
2023-02-24T00:42:42.863Z,107.47
2023-02-24T00:45:12.770Z,108.93
2023-02-24T00:47:42.263Z,102.63
2023-02-24T00:50:14.314Z,99.83
2023-02-24T00:52:43.640Z,108.27
2023-02-24T00:55:15.367Z,100.53
2023-02-24T00:57:45.202Z,95.37
2023-02-24T01:00:16.807Z,101.23
2023-02-24T01:02:46.718Z,101.20
2023-02-24T01:05:16.373Z,111.90
2023-02-24T01:07:45.352Z,99.77
2023-02-24T01:10:18.508Z,107.60
2023-02-24T01:12:54.236Z,109.63
2023-02-24T01:15:24.716Z,116.20
2023-02-24T01:17:53.815Z,107.03
2023-02-24T01:20:22.823Z,111.83
2023-02-24T01:22:54.778Z,111.13
2023-02-24T01:25:25.383Z,110.20
2023-02-24T01:27:56.112Z,109.17
2023-02-24T01:30:25.141Z,132.50
2023-02-24T01:32:54.204Z,120.70
2023-02-24T01:35:23.219Z,127.23
2023-02-24T01:37:53.506Z,133.67
2023-02-24T01:40:22.709Z,123.97
2023-02-24T01:42:53.399Z,133.17
2023-02-24T01:45:25.319Z,140.07
2023-02-24T01:47:58.223Z,131.97
2023-02-24T01:50:28.374Z,147.97
2023-02-24T01:53:01.769Z,138.10
2023-02-24T01:55:34.212Z,136.47
2023-02-24T01:58:10.241Z,173.10
2023-02-24T02:00:47.079Z,149.43
2023-02-24T02:03:32.429Z,157.10
2023-02-24T02:06:03.230Z,128.77
2023-02-24T02:08:32.889Z,147.80
2023-02-24T02:11:06.259Z,145.47
2023-02-24T02:13:39.531Z,135.33
2023-02-24T02:16:32.116Z,138.27
2023-02-24T02:19:14.556Z,142.27
2023-02-24T02:22:07.116Z,131.93
2023-02-24T02:24:54.083Z,192.63
2023-02-24T02:28:04.730Z,194.37
2023-02-24T02:31:06.376Z,183.70
2023-02-24T02:34:09.956Z,166.47
2023-02-24T02:36:47.789Z,164.10
2023-02-24T02:39:24.149Z,174.43
2023-02-24T02:42:01.842Z,142.27
2023-02-24T02:44:40.051Z,161.47
2023-02-24T02:47:14.496Z,138.43
2023-02-24T02:49:46.917Z,150.37
2023-02-24T02:52:37.999Z,144.17
2023-02-24T02:55:11.392Z,147.50
2023-02-24T02:57:47.323Z,167.70
2023-02-24T03:00:21.690Z,157.50
2023-02-24T03:02:55.467Z,162.40
2023-02-24T03:05:31.620Z,139.50
2023-02-24T03:08:02.180Z,153.90
2023-02-24T03:10:52.323Z,161.10
2023-02-24T03:13:25.788Z,136.43
2023-02-24T03:15:56.490Z,175.03
2023-02-24T03:18:32.225Z,170.67
2023-02-24T03:21:08.964Z,175.37
2023-02-24T03:23:45.537Z,260.90
2023-02-24T03:26:22.224Z,653.47
2023-02-24T03:29:00.579Z,323.70
2023-02-24T03:31:41.025Z,267.90
2023-02-24T03:34:13.781Z,435.27
2023-02-24T03:36:44.814Z,422.33
2023-02-24T03:39:15.975Z,167.57
2023-02-24T03:42:09.735Z,126.93
2023-02-24T03:44:38.584Z,139.53
2023-02-24T03:47:09.933Z,159.10
2023-02-24T03:49:43.733Z,106.73
2023-02-24T03:52:23.701Z,117.53
2023-02-24T03:55:25.447Z,126.07
2023-02-24T03:58:08.632Z,126.07
2023-02-24T04:00:52.577Z,98.97
2023-02-24T04:03:27.749Z,101.87
2023-02-24T04:06:14.308Z,119.10
2023-02-24T04:08:52.491Z,120.07
2023-02-24T04:11:27.008Z,119.70
2023-02-24T04:14:03.360Z,111.60
2023-02-24T04:16:40.123Z,119.10
2023-02-24T04:19:14.337Z,132.67
2023-02-24T04:21:48.601Z,157.13
2023-02-24T04:24:29.188Z,141.27
2023-02-24T04:27:00.287Z,133.73
2023-02-24T04:29:37.034Z,155.67
2023-02-24T04:32:09.409Z,154.23
2023-02-24T04:34:41.129Z,154.43
2023-02-24T04:37:10.271Z,137.07
2023-02-24T04:39:40.615Z,138.63
2023-02-24T04:42:22.579Z,132.90
2023-02-24T04:44:51.387Z,151.77
2023-02-24T04:47:20.433Z,157.23
2023-02-24T04:49:59.468Z,149.43
2023-02-24T04:52:28.401Z,150.97
2023-02-24T04:54:59.697Z,151.23
2023-02-24T04:57:28.786Z,154.77
2023-02-24T04:59:59.074Z,160.30
2023-02-24T05:02:28.243Z,149.60
2023-02-24T05:04:59.656Z,162.87
2023-02-24T05:07:30.826Z,169.57
2023-02-24T05:10:03.019Z,248.60
2023-02-24T05:12:33.285Z,305.60
2023-02-24T05:15:02.357Z,248.77
2023-02-24T05:17:32.411Z,242.27
2023-02-24T05:20:30.413Z,326.77
2023-02-24T05:23:18.391Z,315.20
2023-02-24T05:25:48.935Z,254.17
2023-02-24T05:28:17.933Z,227.80
2023-02-24T05:30:47.083Z,209.80
2023-02-24T05:33:16.023Z,176.53
2023-02-24T05:35:45.645Z,165.33
2023-02-24T05:38:14.567Z,166.07
2023-02-24T05:40:47.127Z,131.07
2023-02-24T05:43:18.903Z,106.23
2023-02-24T05:45:47.897Z,114.10
2023-02-24T05:48:19.828Z,155.83
2023-02-24T05:50:55.218Z,123.30
2023-02-24T05:53:24.613Z,106.53
2023-02-24T05:55:55.514Z,98.53
2023-02-24T05:58:31.077Z,92.57
2023-02-24T06:01:06.232Z,136.53
2023-02-24T06:03:35.883Z,155.57
2023-02-24T06:06:09.207Z,147.00
2023-02-24T06:08:43.946Z,141.10
2023-02-24T06:11:17.625Z,153.20
2023-02-24T06:13:49.143Z,155.47
2023-02-24T06:16:38.245Z,147.50
2023-02-24T06:19:08.158Z,170.13
2023-02-24T06:21:41.519Z,231.20
2023-02-24T06:24:15.970Z,184.90
2023-02-24T06:26:45.054Z,165.87
2023-02-24T06:29:30.814Z,143.17
2023-02-24T06:32:00.677Z,132.13
2023-02-24T06:34:29.626Z,145.60
2023-02-24T06:37:01.019Z,149.53
2023-02-24T06:39:30.397Z,150.90
2023-02-24T06:42:04.087Z,152.27
2023-02-24T06:44:35.876Z,118.70
2023-02-24T06:47:05.482Z,100.27
2023-02-24T06:49:34.619Z,91.20
2023-02-24T06:52:05.160Z,108.83
2023-02-24T06:54:36.304Z,108.20
2023-02-24T06:57:05.856Z,83.67
2023-02-24T06:59:36.127Z,76.47
2023-02-24T07:02:05.102Z,81.63
2023-02-24T07:04:43.961Z,78.20
2023-02-24T07:07:14.735Z,91.83
2023-02-24T07:09:45.663Z,113.13
2023-02-24T07:12:21.190Z,129.50
2023-02-24T07:14:52.071Z,109.57
2023-02-24T07:17:23.551Z,178.07
2023-02-24T07:19:54.767Z,152.60
2023-02-24T07:22:25.480Z,128.40
2023-02-24T07:25:00.742Z,134.10
2023-02-24T07:27:30.397Z,123.77
2023-02-24T07:30:06.494Z,117.50
2023-02-24T07:32:35.655Z,102.77
2023-02-24T07:35:04.743Z,145.43
2023-02-24T07:37:35.036Z,114.43
2023-02-24T07:40:17.503Z,148.50
2023-02-24T07:42:49.239Z,111.90
2023-02-24T07:45:19.713Z,121.80
2023-02-24T07:47:48.552Z,109.20
2023-02-24T07:50:18.722Z,100.10
2023-02-24T07:52:49.686Z,88.30
2023-02-24T07:55:22.019Z,91.47
2023-02-24T07:57:52.065Z,102.93
2023-02-24T08:00:28.618Z,101.73
2023-02-24T08:03:00.475Z,91.00
2023-02-24T08:05:30.757Z,97.67
2023-02-24T08:07:59.787Z,97.43
2023-02-24T08:10:35.785Z,88.93
2023-02-24T08:13:06.937Z,97.23
2023-02-24T08:15:56.548Z,92.40
2023-02-24T08:18:28.579Z,93.60
2023-02-24T08:21:07.528Z,93.40
2023-02-24T08:23:44.795Z,97.30
2023-02-24T08:26:14.055Z,106.97
2023-02-24T08:28:44.185Z,114.93
2023-02-24T08:31:14.877Z,100.33
2023-02-24T08:33:57.350Z,118.10
2023-02-24T08:36:26.805Z,108.57
2023-02-24T08:38:59.539Z,108.13
2023-02-24T08:41:46.561Z,101.37
2023-02-24T08:44:20.194Z,104.57
2023-02-24T08:46:52.687Z,121.43
2023-02-24T08:49:25.674Z,116.17
2023-02-24T08:51:55.482Z,112.47
2023-02-24T08:54:31.096Z,117.93
2023-02-24T08:57:11.800Z,114.03
2023-02-24T08:59:50.047Z,112.43
2023-02-24T09:02:29.894Z,127.00
2023-02-24T09:05:14.228Z,122.83
2023-02-24T09:07:45.260Z,106.33
2023-02-24T09:10:19.307Z,103.43
2023-02-24T09:12:49.457Z,94.53
2023-02-24T09:15:26.254Z,102.67
2023-02-24T09:18:07.480Z,116.97
2023-02-24T09:20:54.399Z,99.53
2023-02-24T09:23:30.165Z,100.17
2023-02-24T09:25:59.040Z,92.20
2023-02-24T09:28:37.883Z,97.07
2023-02-24T09:31:10.489Z,99.60
2023-02-24T09:33:44.161Z,121.30
2023-02-24T09:36:29.323Z,122.63
2023-02-24T09:39:17.342Z,111.23
2023-02-24T09:41:57.066Z,93.23
2023-02-24T09:44:33.575Z,93.47
2023-02-24T09:47:21.948Z,112.07
2023-02-24T09:49:59.337Z,124.80
2023-02-24T09:52:39.958Z,123.30
2023-02-24T09:55:29.705Z,129.87
2023-02-24T09:58:34.787Z,132.17
2023-02-24T10:01:33.943Z,119.53
2023-02-24T10:04:20.640Z,111.13
2023-02-24T10:06:55.530Z,112.23
2023-02-24T10:09:29.947Z,142.00
2023-02-24T10:12:05.381Z,108.97
2023-02-24T10:14:44.038Z,113.07
2023-02-24T10:17:24.322Z,101.83
2023-02-24T10:20:00.342Z,102.60
2023-02-24T10:22:40.676Z,99.43
2023-02-24T10:25:24.481Z,113.33
2023-02-24T10:28:02.056Z,96.80
2023-02-24T10:30:42.724Z,102.77
2023-02-24T10:33:26.697Z,110.43
2023-02-24T10:36:09.471Z,133.30
2023-02-24T10:38:45.730Z,164.03
2023-02-24T10:41:16.368Z,141.33
2023-02-24T10:43:56.459Z,100.63
2023-02-24T10:46:42.621Z,102.63
2023-02-24T10:49:17.175Z,91.97
2023-02-24T10:51:54.648Z,95.23
2023-02-24T10:54:45.312Z,100.63
2023-02-24T10:57:23.339Z,86.77
2023-02-24T11:00:15.909Z,101.13
2023-02-24T11:03:04.311Z,96.33
2023-02-24T11:05:44.716Z,95.33
2023-02-24T11:08:36.650Z,95.67
2023-02-24T11:11:25.717Z,83.07
2023-02-24T11:14:13.196Z,98.20
2023-02-24T11:17:25.057Z,98.43
2023-02-24T11:20:00.391Z,122.23
2023-02-24T11:22:35.602Z,107.73
2023-02-24T11:25:10.347Z,96.60
2023-02-24T11:27:43.614Z,90.37
2023-02-24T11:30:41.360Z,95.53
2023-02-24T11:33:22.463Z,114.30
2023-02-24T11:36:02.804Z,97.17
2023-02-24T11:38:40.158Z,91.63
2023-02-24T11:41:18.988Z,104.20
2023-02-24T11:43:59.528Z,117.20
2023-02-24T11:46:39.901Z,95.87
2023-02-24T11:49:19.373Z,87.77
2023-02-24T11:51:48.564Z,104.97
2023-02-24T11:54:18.619Z,101.67
2023-02-24T11:56:54.067Z,148.57
2023-02-24T11:59:32.092Z,89.67
2023-02-24T12:02:06.414Z,89.20
2023-02-24T12:04:39.598Z,86.70
2023-02-24T12:07:11.756Z,92.00
2023-02-24T12:09:49.201Z,95.97
2023-02-24T12:12:23.569Z,101.57
2023-02-24T12:14:58.529Z,93.83
2023-02-24T12:17:35.486Z,115.77
2023-02-24T12:20:07.274Z,104.83
2023-02-24T12:22:51.187Z,109.67
2023-02-24T12:25:50.481Z,115.17
2023-02-24T12:28:34.258Z,99.20
2023-02-24T12:31:14.907Z,102.43
2023-02-24T12:33:53.831Z,121.63
2023-02-24T12:36:36.762Z,110.93
2023-02-24T12:39:16.093Z,106.13
2023-02-24T12:42:03.222Z,124.43
2023-02-24T12:44:43.137Z,130.50
2023-02-24T12:47:15.696Z,109.73
2023-02-24T12:50:26.057Z,111.10
2023-02-24T12:53:07.743Z,95.07
2023-02-24T12:55:47.249Z,141.97
2023-02-24T12:58:21.817Z,103.93
2023-02-24T13:01:04.952Z,112.93
2023-02-24T13:03:56.191Z,105.97
2023-02-24T13:06:35.618Z,103.50
2023-02-24T13:09:13.315Z,91.00
2023-02-24T13:11:47.531Z,106.83
2023-02-24T13:14:37.283Z,121.17
2023-02-24T13:17:17.715Z,111.40
2023-02-24T13:19:49.759Z,106.13
2023-02-24T13:22:31.185Z,108.23
2023-02-24T13:25:13.680Z,106.80
2023-02-24T13:27:44.540Z,117.27
2023-02-24T13:30:30.537Z,116.20
2023-02-24T13:33:06.248Z,107.47
2023-02-24T13:35:38.269Z,105.57
2023-02-24T13:38:24.797Z,113.60
2023-02-24T13:40:54.220Z,99.60
2023-02-24T13:43:27.002Z,118.40
2023-02-24T13:46:00.281Z,112.27
2023-02-24T13:48:54.830Z,111.67
2023-02-24T13:51:56.116Z,103.17
2023-02-24T13:54:52.779Z,111.37
2023-02-24T13:57:47.924Z,105.83
2023-02-24T14:00:29.029Z,99.40
2023-02-24T14:02:59.071Z,119.13
2023-02-24T14:05:31.596Z,121.00
2023-02-24T14:08:23.559Z,124.33
2023-02-24T14:11:00.493Z,103.63
2023-02-24T14:13:34.375Z,126.00
2023-02-24T14:16:08.069Z,123.83
2023-02-24T14:18:37.659Z,129.30
2023-02-24T14:21:07.673Z,113.73
2023-02-24T14:23:38.041Z,107.23
2023-02-24T14:26:27.082Z,117.53
2023-02-24T14:29:01.059Z,111.27
2023-02-24T14:31:50.852Z,110.20
2023-02-24T14:34:24.068Z,113.40
2023-02-24T14:36:55.413Z,103.90
2023-02-24T14:39:25.953Z,103.23
2023-02-24T14:42:11.774Z,102.30
2023-02-24T14:44:43.715Z,100.43
2023-02-24T14:47:15.651Z,125.73
2023-02-24T14:49:54.917Z,115.03
2023-02-24T14:52:31.854Z,115.80
2023-02-24T14:55:06.303Z,113.30
2023-02-24T14:57:41.799Z,132.37
2023-02-24T15:00:22.208Z,127.37
2023-02-24T15:02:57.061Z,126.67
2023-02-24T15:05:26.916Z,130.13
2023-02-24T15:07:56.268Z,135.87
2023-02-24T15:10:28.379Z,162.40
2023-02-24T15:13:01.781Z,155.53
2023-02-24T15:15:39.683Z,164.53
2023-02-24T15:18:14.124Z,150.10
2023-02-24T15:20:46.085Z,159.37
2023-02-24T15:23:28.234Z,146.87
2023-02-24T15:25:57.367Z,128.57
2023-02-24T15:28:31.329Z,114.57
2023-02-24T15:31:08.468Z,130.07
2023-02-24T15:33:50.297Z,113.13
2023-02-24T15:36:38.661Z,126.40
2023-02-24T15:39:31.927Z,156.90
2023-02-24T15:42:39.047Z,181.73
2023-02-24T15:45:32.500Z,155.53
2023-02-24T15:48:26.824Z,252.77
2023-02-24T15:52:29.928Z,264.53
2023-02-24T15:55:16.619Z,231.37
2023-02-24T15:58:05.527Z,248.27
2023-02-24T16:00:38.030Z,257.00
2023-02-24T16:03:07.206Z,267.50
2023-02-24T16:05:36.242Z,267.37
2023-02-24T16:08:05.817Z,255.33
2023-02-24T16:10:34.863Z,199.73
2023-02-24T16:13:04.212Z,183.23
2023-02-24T16:15:38.082Z,198.87
2023-02-24T16:18:14.317Z,188.40
2023-02-24T16:20:43.417Z,234.27
2023-02-24T16:23:14.960Z,262.23
2023-02-24T16:25:46.949Z,322.23
2023-02-24T16:28:17.354Z,363.07
2023-02-24T16:30:51.439Z,340.80
2023-02-24T16:33:23.706Z,291.30
2023-02-24T16:35:54.587Z,311.40
2023-02-24T16:38:26.947Z,315.00
2023-02-24T16:40:58.318Z,305.40
2023-02-24T16:43:29.999Z,258.23
2023-02-24T16:46:04.273Z,299.10
2023-02-24T16:48:37.445Z,227.13
2023-02-24T16:51:08.011Z,233.60
2023-02-24T16:53:39.562Z,252.37
2023-02-24T16:56:19.107Z,244.20
2023-02-24T16:59:25.299Z,230.50
2023-02-24T17:02:20.055Z,233.17
2023-02-24T17:04:50.729Z,205.83
2023-02-24T17:07:24.852Z,188.77
2023-02-24T17:10:46.706Z,153.53
2023-02-24T17:13:20.828Z,130.03
2023-02-24T17:15:57.624Z,120.20
2023-02-24T17:18:28.867Z,108.87
2023-02-24T17:20:59.079Z,106.10
2023-02-24T17:23:28.449Z,135.03
2023-02-24T17:26:02.672Z,107.27
2023-02-24T17:28:33.400Z,100.67
2023-02-24T17:31:03.205Z,103.80
2023-02-24T17:33:56.888Z,105.63
2023-02-24T17:36:26.789Z,100.10
2023-02-24T17:38:57.721Z,90.53
2023-02-24T17:41:27.629Z,85.87
2023-02-24T17:43:56.664Z,89.70
2023-02-24T17:46:25.880Z,82.87
2023-02-24T17:48:57.107Z,88.23
2023-02-24T17:51:27.852Z,100.00
2023-02-24T17:53:58.762Z,105.27
2023-02-24T17:56:28.153Z,94.73
2023-02-24T17:59:02.416Z,115.77
2023-02-24T18:01:34.615Z,162.87
2023-02-24T18:04:22.786Z,127.97
2023-02-24T18:06:56.112Z,117.37
2023-02-24T18:09:25.960Z,138.07
2023-02-24T18:11:57.217Z,139.97
2023-02-24T18:14:26.498Z,127.30
2023-02-24T18:16:55.412Z,132.70
2023-02-24T18:19:26.543Z,130.17
2023-02-24T18:21:58.292Z,106.03
2023-02-24T18:24:48.269Z,134.30
2023-02-24T18:27:17.607Z,102.53
2023-02-24T18:29:46.625Z,98.07
2023-02-24T18:32:15.963Z,107.13
2023-02-24T18:34:47.407Z,106.97
2023-02-24T18:37:17.240Z,89.23
2023-02-24T18:39:46.413Z,121.53
2023-02-24T18:42:15.304Z,118.13
2023-02-24T18:44:44.293Z,131.53
2023-02-24T18:47:15.422Z,122.67
2023-02-24T18:49:46.041Z,146.33
2023-02-24T18:52:15.289Z,140.63
2023-02-24T18:54:45.184Z,150.53
2023-02-24T18:57:14.206Z,129.53
2023-02-24T18:59:43.017Z,142.87
2023-02-24T19:02:12.360Z,188.47
2023-02-24T19:04:41.491Z,153.37
2023-02-24T19:07:12.090Z,162.23
2023-02-24T19:09:41.981Z,157.93
2023-02-24T19:12:11.392Z,177.13
2023-02-24T19:14:40.410Z,170.87
2023-02-24T19:17:09.254Z,179.73
2023-02-24T19:19:38.241Z,161.43
2023-02-24T19:22:08.520Z,139.17
2023-02-24T19:24:58.980Z,125.40
2023-02-24T19:27:28.728Z,107.33
2023-02-24T19:29:58.354Z,87.23
2023-02-24T19:32:27.599Z,94.90
2023-02-24T19:34:56.520Z,94.40
2023-02-24T19:37:25.425Z,89.67
2023-02-24T19:40:14.849Z,96.50
2023-02-24T19:42:47.678Z,99.23
2023-02-24T19:45:17.333Z,97.73
2023-02-24T19:47:48.873Z,99.90
2023-02-24T19:50:19.032Z,125.03
2023-02-24T19:52:48.436Z,190.27
2023-02-24T19:55:19.239Z,180.50
2023-02-24T19:57:48.307Z,220.57
2023-02-24T20:00:19.100Z,232.47
2023-02-24T20:02:48.153Z,194.07
2023-02-24T20:05:17.128Z,166.77
2023-02-24T20:07:46.050Z,186.47
2023-02-24T20:10:20.697Z,236.20
2023-02-24T20:12:50.733Z,319.03
2023-02-24T20:15:20.062Z,270.60
2023-02-24T20:17:49.926Z,238.83
2023-02-24T20:20:20.015Z,226.90
2023-02-24T20:22:50.173Z,207.03
2023-02-24T20:25:21.400Z,210.17
2023-02-24T20:27:54.070Z,291.20
2023-02-24T20:30:30.176Z,212.20
2023-02-24T20:33:00.863Z,209.63
2023-02-24T20:35:32.872Z,188.10
2023-02-24T20:38:02.206Z,200.73
2023-02-24T20:40:34.421Z,205.63
2023-02-24T20:43:06.442Z,212.50
2023-02-24T20:45:36.546Z,198.53
2023-02-24T20:48:06.895Z,206.10
2023-02-24T20:50:36.115Z,192.63
2023-02-24T20:53:05.019Z,192.30
2023-02-24T20:55:36.674Z,170.90
2023-02-24T20:58:06.772Z,188.23
2023-02-24T21:00:38.676Z,237.40
2023-02-24T21:03:12.143Z,230.93
2023-02-24T21:05:41.549Z,222.00
2023-02-24T21:08:12.341Z,197.87
2023-02-24T21:10:45.601Z,215.83
2023-02-24T21:13:14.630Z,199.63
2023-02-24T21:15:52.508Z,167.27
2023-02-24T21:18:26.948Z,149.77
2023-02-24T21:20:56.368Z,160.83
2023-02-24T21:23:26.074Z,150.87
2023-02-24T21:25:56.881Z,150.03
2023-02-24T21:28:25.997Z,150.97
2023-02-24T21:30:54.962Z,167.37
2023-02-24T21:33:24.122Z,163.60
2023-02-24T21:35:59.680Z,189.07
2023-02-24T21:38:31.617Z,202.43
2023-02-24T21:41:02.978Z,191.37
2023-02-24T21:43:32.651Z,181.67
2023-02-24T21:46:03.222Z,188.27
2023-02-24T21:48:32.326Z,154.70
2023-02-24T21:51:03.955Z,153.47
2023-02-24T21:53:33.926Z,147.70
2023-02-24T21:56:11.114Z,152.13
2023-02-24T21:58:40.843Z,149.40
2023-02-24T22:01:14.019Z,147.17
2023-02-24T22:03:51.858Z,165.53
2023-02-24T22:06:21.240Z,156.13
2023-02-24T22:08:50.374Z,151.53
2023-02-24T22:11:23.829Z,162.33
2023-02-24T22:13:52.781Z,186.80
2023-02-24T22:16:23.792Z,183.67
2023-02-24T22:19:12.055Z,160.63
2023-02-24T22:21:42.634Z,161.87
2023-02-24T22:24:15.309Z,153.73
2023-02-24T22:26:46.276Z,148.50
2023-02-24T22:29:15.396Z,143.40
2023-02-24T22:31:48.301Z,141.60
2023-02-24T22:34:18.586Z,137.87
2023-02-24T22:36:47.502Z,137.20
2023-02-24T22:39:17.216Z,133.33
2023-02-24T22:41:48.156Z,132.57
2023-02-24T22:44:19.535Z,126.13
2023-02-24T22:46:49.588Z,123.20
2023-02-24T22:49:19.965Z,125.93
2023-02-24T22:51:48.944Z,131.77
2023-02-24T22:54:18.044Z,121.23
2023-02-24T22:56:48.634Z,132.03
2023-02-24T22:59:17.537Z,114.07
2023-02-24T23:01:46.386Z,123.60
2023-02-24T23:04:17.227Z,131.17
2023-02-24T23:06:47.762Z,119.67
2023-02-24T23:09:22.860Z,124.53
2023-02-24T23:11:53.292Z,123.00
2023-02-24T23:14:22.359Z,124.10
2023-02-24T23:16:55.867Z,131.40
2023-02-24T23:19:25.140Z,128.33
2023-02-24T23:21:56.449Z,117.93
2023-02-24T23:24:25.926Z,117.77
2023-02-24T23:26:57.856Z,119.07
2023-02-24T23:29:27.231Z,119.23
2023-02-24T23:31:56.511Z,124.07
2023-02-24T23:34:25.732Z,114.17
2023-02-24T23:36:54.830Z,115.63
2023-02-24T23:39:24.169Z,124.60
2023-02-24T23:41:57.520Z,116.83
2023-02-24T23:44:28.936Z,121.80
2023-02-24T23:46:58.821Z,120.27
2023-02-24T23:49:39.124Z,113.77
2023-02-24T23:52:12.788Z,129.40
2023-02-24T23:54:43.687Z,120.13
2023-02-24T23:57:12.717Z,122.77
2023-02-24T23:59:43.008Z,129.40
